createdAt,value
2023-03-18T00:00:11.627Z,3.20
2023-03-18T00:02:39.425Z,3.13
2023-03-18T00:05:07.697Z,1.50
2023-03-18T00:07:36.231Z,2.40
2023-03-18T00:10:04.538Z,2.60
2023-03-18T00:12:32.378Z,1.87
2023-03-18T00:15:00.481Z,2.07
2023-03-18T00:17:26.952Z,2.30
2023-03-18T00:19:53.838Z,2.13
2023-03-18T00:22:20.499Z,3.53
2023-03-18T00:24:48.916Z,5.70
2023-03-18T00:27:15.889Z,2.90
2023-03-18T00:29:43.119Z,3.23
2023-03-18T00:32:09.851Z,2.63
2023-03-18T00:34:36.368Z,5.90
2023-03-18T00:37:04.392Z,3.13
2023-03-18T00:39:32.956Z,3.77
2023-03-18T00:42:02.125Z,3.33
2023-03-18T00:44:28.898Z,2.40
2023-03-18T00:46:55.465Z,3.03
2023-03-18T00:49:22.127Z,3.57
2023-03-18T00:51:48.654Z,3.10
2023-03-18T00:54:18.543Z,2.80
2023-03-18T00:56:45.411Z,3.10
2023-03-18T00:59:11.976Z,3.93
2023-03-18T01:01:39.313Z,3.90
2023-03-18T01:04:07.223Z,3.20
2023-03-18T01:06:37.345Z,4.43
2023-03-18T01:09:05.699Z,3.60
2023-03-18T01:11:33.303Z,4.50
2023-03-18T01:14:00.498Z,3.87
2023-03-18T01:16:27.614Z,7.00
2023-03-18T01:18:54.641Z,3.33
2023-03-18T01:21:22.262Z,2.67
2023-03-18T01:23:53.618Z,5.23
2023-03-18T01:26:20.472Z,3.33
2023-03-18T01:28:47.998Z,4.40
2023-03-18T01:31:15.501Z,3.03
2023-03-18T01:33:44.368Z,2.47
2023-03-18T01:36:11.768Z,3.67
2023-03-18T01:38:38.435Z,3.33
2023-03-18T01:41:11.123Z,5.00
2023-03-18T01:43:41.018Z,3.70
2023-03-18T01:46:47.449Z,2.90
2023-03-18T01:49:22.452Z,2.77
2023-03-18T01:51:59.645Z,2.63
2023-03-18T01:54:28.742Z,4.03
2023-03-18T01:56:56.708Z,4.00
2023-03-18T01:59:26.446Z,4.43
2023-03-18T02:01:59.152Z,3.33
2023-03-18T02:04:31.102Z,3.83
2023-03-18T02:06:59.154Z,9.20
2023-03-18T02:09:25.768Z,3.60
2023-03-18T02:11:52.944Z,2.33
2023-03-18T02:14:25.648Z,4.10
2023-03-18T02:17:06.145Z,3.47
2023-03-18T02:19:52.823Z,3.07
2023-03-18T02:22:39.527Z,5.47
2023-03-18T02:25:21.894Z,5.73
2023-03-18T02:28:03.841Z,3.83
2023-03-18T02:30:43.660Z,3.20
2023-03-18T02:33:14.873Z,1.63
2023-03-18T02:35:44.772Z,3.70
2023-03-18T02:38:11.461Z,2.30
2023-03-18T02:40:40.674Z,6.10
2023-03-18T02:43:24.624Z,5.20
2023-03-18T02:46:31.180Z,2.67
2023-03-18T02:49:04.590Z,2.63
2023-03-18T02:51:31.269Z,4.07
2023-03-18T02:54:03.245Z,4.90
2023-03-18T02:56:30.106Z,4.40
2023-03-18T02:58:57.773Z,2.60
2023-03-18T03:01:25.713Z,2.20
2023-03-18T03:03:52.275Z,2.83
2023-03-18T03:06:19.123Z,1.97
2023-03-18T03:08:45.998Z,1.30
2023-03-18T03:11:12.773Z,2.70
2023-03-18T03:13:41.823Z,4.50
2023-03-18T03:16:10.788Z,3.33
2023-03-18T03:18:37.698Z,4.03
2023-03-18T03:21:05.152Z,3.63
2023-03-18T03:23:32.451Z,2.63
2023-03-18T03:25:59.112Z,2.43
2023-03-18T03:28:27.032Z,4.50
2023-03-18T03:30:55.695Z,2.43
2023-03-18T03:33:22.865Z,3.43
2023-03-18T03:35:49.668Z,2.20
2023-03-18T03:38:16.641Z,4.27
2023-03-18T03:40:44.912Z,2.53
2023-03-18T03:43:13.073Z,3.83
2023-03-18T03:45:40.663Z,3.57
2023-03-18T03:48:08.201Z,3.57
2023-03-18T03:50:37.100Z,2.47
2023-03-18T03:53:04.761Z,2.50
2023-03-18T03:55:31.667Z,5.33
2023-03-18T03:57:58.126Z,3.37
2023-03-18T04:00:26.594Z,3.43
2023-03-18T04:02:54.083Z,3.33
2023-03-18T04:05:24.536Z,3.50
2023-03-18T04:07:52.381Z,4.10
2023-03-18T04:10:24.132Z,2.97
2023-03-18T04:12:50.894Z,3.17
2023-03-18T04:15:19.646Z,3.20
2023-03-18T04:17:49.886Z,2.50
2023-03-18T04:20:18.667Z,4.80
2023-03-18T04:22:46.068Z,3.63
2023-03-18T04:25:14.803Z,3.37
2023-03-18T04:27:41.736Z,4.80
2023-03-18T04:30:12.514Z,2.90
2023-03-18T04:32:54.953Z,3.73
2023-03-18T04:35:23.344Z,2.33
2023-03-18T04:37:50.632Z,3.57
2023-03-18T04:40:18.240Z,4.50
2023-03-18T04:42:47.669Z,3.43
2023-03-18T04:45:16.562Z,3.23
2023-03-18T04:47:44.273Z,2.40
2023-03-18T04:50:12.373Z,1.97
2023-03-18T04:52:40.680Z,2.10
2023-03-18T04:55:09.477Z,3.47
2023-03-18T04:57:38.658Z,3.97
2023-03-18T05:00:12.202Z,4.07
2023-03-18T05:02:40.994Z,3.67
2023-03-18T05:05:11.439Z,2.00
2023-03-18T05:07:44.108Z,2.27
2023-03-18T05:10:14.120Z,3.37
2023-03-18T05:12:41.951Z,2.10
2023-03-18T05:15:12.120Z,3.03
2023-03-18T05:17:43.692Z,2.00
2023-03-18T05:20:13.299Z,3.27
2023-03-18T05:22:40.222Z,3.00
2023-03-18T05:25:14.782Z,3.37
2023-03-18T05:27:41.993Z,4.27
2023-03-18T05:30:15.992Z,4.33
2023-03-18T05:32:47.398Z,5.47
2023-03-18T05:35:14.233Z,1.77
2023-03-18T05:37:47.700Z,2.47
2023-03-18T05:40:14.834Z,3.33
2023-03-18T05:42:55.793Z,3.17
2023-03-18T05:45:30.812Z,3.30
2023-03-18T05:47:58.079Z,3.00
2023-03-18T05:50:34.312Z,4.47
2023-03-18T05:53:05.440Z,1.73
2023-03-18T05:55:36.591Z,2.87
2023-03-18T05:58:03.959Z,13.43
2023-03-18T06:00:33.044Z,3.20
2023-03-18T06:03:01.746Z,5.73
2023-03-18T06:05:30.038Z,2.73
2023-03-18T06:07:57.520Z,7.27
2023-03-18T06:10:25.163Z,4.10
2023-03-18T06:12:52.631Z,2.87
2023-03-18T06:15:21.150Z,2.13
2023-03-18T06:17:48.746Z,3.73
2023-03-18T06:20:16.458Z,3.37
2023-03-18T06:22:48.833Z,2.17
2023-03-18T06:25:20.946Z,1.73
2023-03-18T06:27:48.886Z,2.17
2023-03-18T06:30:18.478Z,2.90
2023-03-18T06:32:45.146Z,3.97
2023-03-18T06:35:12.780Z,3.33
2023-03-18T06:37:40.009Z,1.80
2023-03-18T06:40:10.496Z,3.17
2023-03-18T06:42:37.549Z,2.17
2023-03-18T06:45:15.167Z,3.13
2023-03-18T06:47:50.519Z,1.43
2023-03-18T06:50:17.524Z,3.47
2023-03-18T06:52:44.006Z,2.97
2023-03-18T06:55:15.707Z,2.40
2023-03-18T06:57:45.613Z,2.40
2023-03-18T07:00:16.255Z,3.53
2023-03-18T07:02:43.330Z,2.47
2023-03-18T07:05:12.733Z,3.85
2023-03-18T07:07:40.667Z,5.10
2023-03-18T07:10:09.509Z,3.33
2023-03-18T07:12:36.074Z,6.85
2023-03-18T07:15:04.223Z,4.70
2023-03-18T07:17:30.897Z,5.53
2023-03-18T07:19:58.066Z,7.05
2023-03-18T07:22:24.661Z,2.58
2023-03-18T07:24:52.318Z,3.33
2023-03-18T07:27:20.622Z,3.60
2023-03-18T07:29:47.228Z,3.40
2023-03-18T07:32:13.995Z,4.63
2023-03-18T07:34:42.512Z,3.95
2023-03-18T07:37:09.072Z,3.42
2023-03-18T07:39:35.518Z,2.55
2023-03-18T07:42:02.107Z,3.20
2023-03-18T07:44:30.209Z,4.53
2023-03-18T07:46:57.361Z,4.55
2023-03-18T07:49:24.023Z,3.28
2023-03-18T07:51:50.741Z,4.10
2023-03-18T07:54:17.970Z,1.42
2023-03-18T07:56:44.573Z,3.42
2023-03-18T07:59:12.326Z,4.03
2023-03-18T08:02:53.597Z,3.08
2023-03-18T08:05:21.998Z,2.88
2023-03-18T08:07:48.669Z,3.03
2023-03-18T08:32:49.264Z,2.58
2023-03-18T08:35:15.728Z,3.17
2023-03-18T08:37:42.529Z,2.55
2023-03-18T08:43:25.880Z,2.53
2023-03-18T08:45:55.829Z,2.17
2023-03-18T08:48:23.450Z,1.75
2023-03-18T08:50:49.909Z,3.33
2023-03-18T08:53:16.780Z,2.50
2023-03-18T08:55:43.566Z,2.15
2023-03-18T08:58:10.359Z,2.00
2023-03-18T09:00:39.095Z,2.83
2023-03-18T09:03:05.684Z,1.65
2023-03-18T09:05:32.895Z,1.90
2023-03-18T09:08:00.349Z,2.28
2023-03-18T09:10:30.756Z,2.38
2023-03-18T09:13:22.488Z,1.98
2023-03-18T09:17:45.324Z,4.10
2023-03-18T09:20:17.417Z,3.63
2023-03-18T09:22:46.448Z,2.38
2023-03-18T09:25:13.484Z,2.85
2023-03-18T09:27:39.932Z,2.95
2023-03-18T09:30:08.086Z,3.20
2023-03-18T09:32:34.606Z,2.53
2023-03-18T09:35:01.570Z,3.03
2023-03-18T09:37:28.039Z,2.80
2023-03-18T09:39:54.578Z,3.90
2023-03-18T09:42:51.318Z,2.95
2023-03-18T09:45:46.948Z,2.75
2023-03-18T09:48:31.892Z,3.75
2023-03-18T09:51:10.244Z,2.95
2023-03-18T09:53:50.108Z,4.20
2023-03-18T09:56:22.706Z,3.78
2023-03-18T09:59:00.821Z,1.83
2023-03-18T10:01:28.992Z,2.58
2023-03-18T10:04:11.390Z,3.35
2023-03-18T10:06:42.922Z,2.30
2023-03-18T10:09:24.383Z,3.38
2023-03-18T10:11:53.913Z,3.47
2023-03-18T10:14:26.474Z,2.50
2023-03-18T10:17:05.776Z,1.95
2023-03-18T10:19:34.842Z,3.45
2023-03-18T10:22:32.200Z,3.22
2023-03-18T10:25:12.550Z,3.67
2023-03-18T10:27:49.193Z,2.63
2023-03-18T10:30:45.039Z,3.05
2023-03-18T10:33:27.774Z,1.92
2023-03-18T10:36:13.300Z,2.30
2023-03-18T10:38:44.787Z,2.90
2023-03-18T10:41:15.810Z,1.92
2023-03-18T10:43:43.036Z,1.20
2023-03-18T10:46:14.440Z,3.88
2023-03-18T10:49:04.553Z,3.53
2023-03-18T10:51:50.043Z,2.65
2023-03-18T10:54:32.881Z,2.17
2023-03-18T10:56:59.361Z,3.08
2023-03-18T10:59:28.540Z,1.75
2023-03-18T11:02:04.692Z,2.15
2023-03-18T11:04:38.908Z,2.97
2023-03-18T11:07:12.827Z,4.47
2023-03-18T11:09:42.226Z,1.73
2023-03-18T11:12:19.318Z,3.17
2023-03-18T11:14:50.163Z,3.35
2023-03-18T11:17:28.106Z,3.88
2023-03-18T11:20:25.614Z,1.77
2023-03-18T11:22:55.607Z,2.92
2023-03-18T11:25:26.468Z,1.95
2023-03-18T11:27:59.465Z,3.67
2023-03-18T11:30:34.321Z,3.28
2023-03-18T11:33:12.651Z,2.15
2023-03-18T11:35:46.243Z,2.40
2023-03-18T11:38:29.409Z,2.78
2023-03-18T11:41:07.078Z,3.60
2023-03-18T11:43:33.560Z,1.08
2023-03-18T11:46:03.346Z,2.10
2023-03-18T11:48:39.295Z,1.73
2023-03-18T11:51:30.452Z,2.72
2023-03-18T11:54:15.760Z,1.98
2023-03-18T11:56:49.636Z,2.17
2023-03-18T11:59:40.495Z,1.92
2023-03-18T12:02:31.992Z,3.50
2023-03-18T12:05:32.538Z,2.67
2023-03-18T12:08:18.917Z,1.95
2023-03-18T12:10:57.243Z,2.17
2023-03-18T12:14:09.930Z,1.45
2023-03-18T12:17:06.391Z,1.98
2023-03-18T12:19:35.629Z,3.03
2023-03-18T12:22:50.518Z,2.58
2023-03-18T12:25:34.537Z,5.05
2023-03-18T12:28:13.658Z,3.33
2023-03-18T12:30:49.063Z,2.10
2023-03-18T12:33:21.932Z,2.72
2023-03-18T12:35:58.701Z,3.28
2023-03-18T12:38:56.706Z,1.67
2023-03-18T12:41:42.129Z,2.53
2023-03-18T12:44:17.294Z,1.95
2023-03-18T12:47:00.467Z,3.53
2023-03-18T12:49:37.515Z,2.58
2023-03-18T12:52:33.398Z,2.65
2023-03-18T12:55:16.172Z,1.90
2023-03-18T12:57:48.621Z,1.35
2023-03-18T13:00:30.109Z,3.50
2023-03-18T13:03:06.909Z,3.80
2023-03-18T13:05:43.632Z,2.33
2023-03-18T13:08:41.912Z,2.85
2023-03-18T13:11:20.077Z,3.40
2023-03-18T13:13:52.145Z,5.45
2023-03-18T13:16:21.626Z,1.63
2023-03-18T13:18:53.041Z,3.17
2023-03-18T13:21:23.182Z,1.30
2023-03-18T13:23:56.253Z,3.92
2023-03-18T13:27:00.240Z,1.92
2023-03-18T13:29:45.976Z,2.67
2023-03-18T13:32:12.425Z,2.33
2023-03-18T13:34:56.689Z,2.17
2023-03-18T13:37:36.141Z,3.17
2023-03-18T13:40:20.654Z,2.25
2023-03-18T13:42:49.220Z,2.10
2023-03-18T13:45:33.812Z,2.50
2023-03-18T13:48:06.152Z,4.10
2023-03-18T13:50:35.001Z,3.80
2023-03-18T13:53:03.168Z,2.13
2023-03-18T13:55:42.085Z,3.65
2023-03-18T13:58:19.377Z,1.85
2023-03-18T14:01:23.898Z,2.97
2023-03-18T14:03:50.292Z,2.20
2023-03-18T14:06:16.645Z,1.88
2023-03-18T14:08:43.140Z,2.22
2023-03-18T14:11:25.832Z,3.17
2023-03-18T14:13:54.135Z,2.08
2023-03-18T14:16:29.742Z,3.63
2023-03-18T14:19:10.100Z,2.72
2023-03-18T14:21:48.206Z,2.95
2023-03-18T14:24:17.689Z,1.67
2023-03-18T14:26:59.535Z,2.65
2023-03-18T14:29:31.147Z,3.95
2023-03-18T14:32:00.393Z,2.55
2023-03-18T14:34:33.987Z,1.83
2023-03-18T14:37:19.210Z,4.43
2023-03-18T14:39:51.474Z,2.55
2023-03-18T14:42:44.040Z,4.20
2023-03-18T14:45:23.514Z,2.40
2023-03-18T14:47:51.342Z,2.80
2023-03-18T14:50:30.118Z,2.70
2023-03-18T14:53:08.663Z,2.50
2023-03-18T14:55:37.474Z,2.03
2023-03-18T14:58:04.321Z,2.30
2023-03-18T15:00:35.461Z,3.97
2023-03-18T15:03:26.570Z,1.88
2023-03-18T15:05:58.695Z,4.47
2023-03-18T15:08:44.615Z,4.65
2023-03-18T15:11:13.238Z,2.90
2023-03-18T15:13:42.306Z,1.52
2023-03-18T15:16:16.723Z,4.25
2023-03-18T15:18:43.664Z,3.90
2023-03-18T15:21:17.893Z,2.58
2023-03-18T15:23:53.975Z,2.25
2023-03-18T15:26:38.574Z,4.38
2023-03-18T15:29:43.713Z,2.28
2023-03-18T15:32:19.191Z,1.90
2023-03-18T15:34:53.006Z,2.17
2023-03-18T15:37:39.981Z,2.42
2023-03-18T15:40:28.917Z,2.55
2023-03-18T15:42:57.980Z,3.50
2023-03-18T15:45:28.102Z,2.70
2023-03-18T15:47:55.364Z,3.53
2023-03-18T15:50:25.976Z,2.33
2023-03-18T15:53:06.228Z,2.63
2023-03-18T15:55:50.979Z,2.78
2023-03-18T15:58:34.052Z,1.42
2023-03-18T16:01:00.894Z,2.38
2023-03-18T16:03:31.227Z,2.17
2023-03-18T16:05:58.262Z,1.08
2023-03-18T16:08:25.311Z,1.35
2023-03-18T16:10:55.845Z,1.50
2023-03-18T16:13:29.379Z,2.55
2023-03-18T16:15:56.706Z,3.53
2023-03-18T16:18:23.156Z,2.53
2023-03-18T16:20:50.275Z,2.63
2023-03-18T16:23:17.540Z,3.38
2023-03-18T16:25:47.061Z,2.08
2023-03-18T16:28:23.344Z,2.45
2023-03-18T16:30:52.385Z,2.55
2023-03-18T16:33:20.032Z,2.95
2023-03-18T16:35:54.502Z,2.92
2023-03-18T16:38:20.958Z,4.60
2023-03-18T16:40:47.370Z,1.92
2023-03-18T16:43:31.183Z,2.75
2023-03-18T16:46:00.637Z,2.50
2023-03-18T16:48:27.735Z,2.15
2023-03-18T16:50:55.510Z,2.60
2023-03-18T16:53:29.525Z,3.70
2023-03-18T16:56:16.530Z,1.48
2023-03-18T16:58:44.433Z,1.70
2023-03-18T17:01:16.475Z,3.50
2023-03-18T17:03:44.133Z,1.90
2023-03-18T17:06:10.730Z,4.10
2023-03-18T17:08:37.735Z,3.08
2023-03-18T17:11:04.852Z,4.97
2023-03-18T17:13:34.860Z,2.65
2023-03-18T17:16:01.733Z,2.20
2023-03-18T17:18:28.228Z,11.43
2023-03-18T17:20:54.833Z,68.65
2023-03-18T17:23:28.839Z,90.18
2023-03-18T17:25:59.263Z,30.80
2023-03-18T17:28:39.184Z,7.10
2023-03-18T17:31:06.617Z,7.00
2023-03-18T17:33:35.434Z,5.28
2023-03-18T17:36:02.216Z,3.88
2023-03-18T17:38:30.975Z,3.60
2023-03-18T17:40:58.730Z,4.68
2023-03-18T17:43:28.712Z,9.57
2023-03-18T17:45:56.809Z,10.45
2023-03-18T17:48:25.584Z,17.08
2023-03-18T17:50:58.485Z,19.92
2023-03-18T17:53:28.015Z,42.05
2023-03-18T17:55:54.984Z,70.15
2023-03-18T17:58:24.565Z,46.53
2023-03-18T18:00:53.802Z,20.05
2023-03-18T18:03:24.325Z,14.90
2023-03-18T18:05:51.454Z,11.13
2023-03-18T18:08:19.080Z,7.72
2023-03-18T18:10:45.836Z,7.40
2023-03-18T18:13:15.250Z,4.43
2023-03-18T18:15:43.347Z,3.17
2023-03-18T18:18:23.212Z,5.32
2023-03-18T18:20:54.264Z,7.45
2023-03-18T18:23:28.824Z,10.82
2023-03-18T18:25:57.722Z,7.93
2023-03-18T18:28:29.308Z,7.68
2023-03-18T18:30:55.867Z,6.13
2023-03-18T18:33:22.349Z,8.30
2023-03-18T18:35:48.857Z,5.05
2023-03-18T18:38:15.644Z,7.25
2023-03-18T18:40:42.514Z,9.75
2023-03-18T18:43:09.075Z,14.13
2023-03-18T18:45:36.195Z,7.68
2023-03-18T18:48:03.547Z,7.68
2023-03-18T18:50:35.503Z,6.25
2023-03-18T18:53:02.596Z,7.38
2023-03-18T18:55:28.996Z,15.23
2023-03-18T18:57:56.057Z,16.30
2023-03-18T19:00:23.602Z,14.52
2023-03-18T19:02:53.247Z,9.45
2023-03-18T19:05:19.961Z,6.60
2023-03-18T19:07:46.522Z,6.15
2023-03-18T19:10:15.107Z,6.37
2023-03-18T19:12:44.177Z,7.43
2023-03-18T19:15:13.449Z,10.13
2023-03-18T19:17:43.271Z,39.23
2023-03-18T19:20:25.052Z,14.30
2023-03-18T19:22:53.047Z,15.57
2023-03-18T19:25:19.697Z,6.30
2023-03-18T19:27:46.638Z,6.07
2023-03-18T19:30:21.438Z,8.85
2023-03-18T19:32:48.915Z,14.63
2023-03-18T19:35:15.615Z,13.40
2023-03-18T19:37:44.332Z,14.27
2023-03-18T19:40:23.664Z,9.60
2023-03-18T19:42:50.402Z,8.43
2023-03-18T19:45:17.815Z,9.03
2023-03-18T19:47:45.967Z,9.20
2023-03-18T19:50:17.446Z,9.50
2023-03-18T19:52:44.140Z,6.53
2023-03-18T19:55:15.666Z,7.70
2023-03-18T19:57:48.069Z,11.50
2023-03-18T20:00:23.602Z,9.87
2023-03-18T20:02:50.827Z,14.13
2023-03-18T20:05:22.411Z,11.50
2023-03-18T20:07:50.349Z,15.67
2023-03-18T20:10:18.705Z,15.97
2023-03-18T20:12:47.490Z,13.97
2023-03-18T20:15:20.312Z,3.03
2023-03-18T20:17:48.789Z,13.63
2023-03-18T20:20:17.861Z,61.73
2023-03-18T20:22:48.216Z,12.27
2023-03-18T20:25:24.342Z,20.60
2023-03-18T20:27:53.446Z,15.07
2023-03-18T20:30:23.082Z,8.33
2023-03-18T20:32:49.647Z,8.27
2023-03-18T20:35:16.812Z,9.40
2023-03-18T20:37:43.578Z,6.40
2023-03-18T20:40:20.833Z,6.97
2023-03-18T20:42:47.441Z,18.17
2023-03-18T20:45:15.790Z,8.93
2023-03-18T20:47:43.890Z,10.83
2023-03-18T20:50:22.664Z,13.63
2023-03-18T20:52:49.145Z,4.47
2023-03-18T20:55:20.164Z,6.47
2023-03-18T20:57:46.871Z,10.97
2023-03-18T21:00:18.848Z,6.73
2023-03-18T21:02:47.119Z,17.20
2023-03-18T21:05:14.591Z,8.03
2023-03-18T21:07:41.643Z,11.53
2023-03-18T21:10:09.419Z,10.97
2023-03-18T21:12:36.697Z,7.97
2023-03-18T21:15:03.935Z,11.00
2023-03-18T21:17:30.569Z,6.77
2023-03-18T21:20:05.021Z,6.47
2023-03-18T21:22:38.008Z,8.30
2023-03-18T21:25:06.091Z,8.37
2023-03-18T21:27:34.131Z,7.40
2023-03-18T21:30:01.882Z,6.00
2023-03-18T21:32:33.216Z,7.43
2023-03-18T21:34:59.735Z,8.40
2023-03-18T21:37:27.300Z,5.83
2023-03-18T21:40:19.606Z,8.23
2023-03-18T21:47:43.312Z,4.20
2023-03-18T21:50:30.330Z,3.30
2023-03-18T21:52:57.419Z,3.97
2023-03-18T21:55:23.837Z,3.87
2023-03-18T21:57:50.379Z,6.30
2023-03-18T22:00:20.026Z,5.30
2023-03-18T22:02:47.403Z,5.03
2023-03-18T22:05:20.400Z,7.37
2023-03-18T22:07:47.611Z,9.63
2023-03-18T22:10:19.857Z,8.73
2023-03-18T22:12:46.712Z,6.83
2023-03-18T22:15:35.746Z,7.93
2023-03-18T22:18:02.712Z,5.53
2023-03-18T22:20:29.374Z,6.30
2023-03-18T22:22:55.992Z,5.57
2023-03-18T22:25:31.713Z,6.10
2023-03-18T22:27:59.342Z,7.60
2023-03-18T22:30:27.424Z,4.87
2023-03-18T22:32:54.756Z,5.20
2023-03-18T22:35:25.452Z,5.87
2023-03-18T22:37:52.362Z,4.27
2023-03-18T22:40:28.107Z,5.20
2023-03-18T22:43:01.681Z,6.10
2023-03-18T22:45:30.475Z,3.47
2023-03-18T22:47:59.261Z,4.27
2023-03-18T22:50:27.971Z,5.20
2023-03-18T22:53:00.607Z,5.00
2023-03-18T22:55:31.927Z,8.53
2023-03-18T22:57:58.595Z,3.73
2023-03-18T23:00:33.458Z,5.13
2023-03-18T23:03:00.015Z,4.13
2023-03-18T23:05:27.207Z,6.57
2023-03-18T23:07:54.138Z,7.40
2023-03-18T23:10:21.357Z,3.27
2023-03-18T23:12:48.160Z,6.90
2023-03-18T23:15:20.716Z,3.67
2023-03-18T23:17:47.705Z,3.73
2023-03-18T23:20:16.665Z,4.53
2023-03-18T23:22:43.854Z,5.73
2023-03-18T23:25:16.461Z,6.97
2023-03-18T23:27:43.391Z,4.77
2023-03-18T23:30:12.374Z,3.23
2023-03-18T23:32:40.395Z,5.27
2023-03-18T23:35:08.875Z,5.07
2023-03-18T23:37:35.708Z,6.80
2023-03-18T23:40:03.055Z,5.57
2023-03-18T23:42:29.484Z,4.60
2023-03-18T23:44:55.940Z,4.37
2023-03-18T23:47:22.402Z,5.00
2023-03-18T23:49:48.898Z,5.10
2023-03-18T23:52:15.905Z,5.97
2023-03-18T23:54:42.405Z,6.10
2023-03-18T23:57:10.150Z,6.30
2023-03-18T23:59:37.519Z,4.20
